Latest Coastal Weather Observations for Friendly Beaches

IDT60701

Issued at 1:41 pm EST Tuesday 30 June 2015 (issued every 10 minutes, with the page automatically refreshed every 10 minutes)

About coastal observations | Map of coastal stations | Coastal observations for TAS | Marine services | Other Formats
Station Details ID: 092114 Name: FRIENDLY BEACHES Lat: -42.00 Lon: 148.28 Height: 55.0 m
Data from the previous 72 hours. | See also: Recent months at Friendly Beaches
Date/Time
EST
Temp

°C
Wind Pressure Rain
since 9am
mm
Weather Cloud Vis
km
Sea
Height
m
Swell
Dir
 
Speed
knots
Gust
knots
hPa Trend Height
m
Period
s
Dir
30/01:30pm 14.3 ENE 3 7 1023.3 - 0.0 - - - - - - -
30/01:00pm 13.9 W 1 3 1023.4 - 0.0 - - - - - - -
30/12:30pm 13.2 NW 3 4 1023.6 - 0.0 - - - - - - -
30/12:00pm 12.0 WNW 4 5 1024.0 - 0.0 - - - - - - -
30/11:30am 12.1 WNW 3 5 1024.4 - 0.0 - - - - - - -
30/11:00am 11.4 NW 3 5 1025.0 - 0.0 - - - - - - -
30/10:30am 9.3 NW 6 8 1025.3 - 0.0 - - - - - - -
30/10:00am 8.0 WNW 7 9 1025.1 - 0.0 - - - - - - -
30/09:30am 6.7 W 7 9 1025.0 - 0.0 - - - - - - -
30/09:00am 6.0 W 7 8 1024.9 - 0.0 - - - - - - -
30/08:30am 7.0 WNW 6 7 1024.7 - 0.0 - - - - - - -
30/08:00am 6.3 WNW 6 7 1024.6 - 0.0 - - - - - - -
30/07:30am 5.2 WNW 6 8 1024.4 - 0.0 - - - - - - -
30/07:00am 5.5 WNW 5 7 1024.1 - 0.0 - - - - - - -
30/06:30am 5.2 WNW 5 5 1024.0 - 0.0 - - - - - - -
30/06:00am 5.9 WNW 6 7 1023.6 - 0.0 - - - - - - -
30/05:30am 6.0 NW 6 7 1023.7 - 0.0 - - - - - - -
30/05:00am 6.3 WNW 7 8 1023.6 - 0.0 - - - - - - -
30/04:30am 5.0 WNW 8 9 1023.5 - 0.0 - - - - - - -
30/04:00am 4.7 WNW 7 8 1023.5 - 0.0 - - - - - - -
30/03:30am 5.3 WNW 7 7 1023.5 - 0.0 - - - - - - -
30/03:00am 6.5 WNW 4 6 1023.6 - 0.0 - - - - - - -
30/02:30am 5.1 CALM 0 0 1023.7 - 0.0 - - - - - - -
30/02:00am 7.4 E 1 2 1023.7 - 0.0 - - - - - - -
30/01:30am 8.2 NNW 3 4 1023.7 - 0.0 - - - - - - -
30/01:00am 6.6 NW 4 5 1023.8 - 0.0 - - - - - - -
30/12:30am 7.8 NNW 5 6 1024.0 - 0.0 - - - - - - -
30/12:00am 8.6 NW 1 4 1024.1 - 0.0 - - - - - - -
 
Date/Time
EST
Temp

°C
Wind Pressure Rain
since 9am
mm
Weather Cloud Vis
km
Sea
Height
m
Swell
Dir
 
Speed
knots
Gust
knots
hPa Trend Height
m
Period
s
Dir
29/11:30pm 8.4 CALM 0 0 1024.2 - 0.0 - - - - - - -
29/11:00pm 8.2 WNW 1 1 1024.3 - 0.0 - - - - - - -
29/10:30pm 8.4 NE 1 2 1024.3 - 0.0 - - - - - - -
29/10:00pm 9.6 CALM 0 0 1024.6 - 0.0 - - - - - - -
29/09:30pm 9.8 NW 1 2 1024.7 - 0.0 - - - - - - -
29/09:00pm 10.2 WNW 3 5 1024.6 - 0.0 - - - - - - -
29/08:30pm 9.8 SW 2 4 1024.6 - 0.0 - - - - - - -
29/08:00pm 9.7 S 2 3 1024.7 - 0.0 - - - - - - -
29/07:30pm 9.9 SE 1 3 1024.6 - 0.0 - - - - - - -
29/07:00pm 10.1 W 2 3 1024.7 - 0.0 - - - - - - -
29/06:30pm 10.3 WSW 3 4 1024.4 - 0.0 - - - - - - -
29/06:00pm 11.0 WSW 2 3 1024.2 - 0.0 - - - - - - -
29/05:30pm 11.6 WNW 3 4 1024.2 - 0.0 - - - - - - -
29/05:00pm 12.4 NW 3 4 1024.2 - 0.0 - - - - - - -
29/04:30pm 13.6 NW 3 6 1024.1 - 0.0 - - - - - - -
29/04:00pm 14.9 NW 4 7 1024.2 - 0.0 - - - - - - -
29/03:30pm 15.9 WNW 4 7 1023.9 - 0.0 - - - - - - -
29/03:00pm 16.9 NW 6 10 1023.7 - 0.0 - - - - - - -
29/02:30pm 17.3 WNW 5 8 1023.7 - 0.0 - - - - - - -
29/02:00pm 17.1 WNW 5 9 1023.6 - 0.0 - - - - - - -
29/01:30pm 15.8 CALM 0 0 1024.1 - 0.0 - - - - - - -
29/01:00pm 15.2 SSE 3 4 1024.5 - 0.0 - - - - - - -
29/12:30pm 14.7 SE 2 4 1025.0 - 0.0 - - - - - - -
29/12:00pm 14.4 SE 2 4 1025.2 - 0.0 - - - - - - -
29/11:30am 15.1 E 2 4 1025.6 - 0.0 - - - - - - -
29/11:00am 14.8 ENE 4 7 1026.1 - 0.0 - - - - - - -
29/10:30am 13.8 E 2 4 1026.3 - 0.0 - - - - - - -
29/10:00am 12.1 SSE 1 3 1026.2 - 0.0 - - - - - - -
29/09:30am 11.5 SSE 1 3 1026.1 - 0.0 - - - - - - -
29/09:00am 10.9 CALM 0 0 1026.2 - 0.0 - - - - - - -
29/08:30am 10.0 CALM 0 0 1026.2 - 0.0 - - - - - - -
29/08:00am 9.1 NE 1 4 1026.0 - 0.0 - - - - - - -
29/07:30am 9.4 N 1 5 1025.8 - 0.0 - - - - - - -
29/07:00am 9.8 NE 2 3 1025.6 - 0.0 - - - - - - -
29/06:30am 9.0 CALM 0 0 1025.4 - 0.0 - - - - - - -
29/06:00am 9.6 CALM 0 0 1025.2 - 0.0 - - - - - - -
29/05:30am 9.6 NE 2 3 1024.9 - 0.0 - - - - - - -
29/05:00am 9.8 NE 2 3 1024.6 - 0.0 - - - - - - -
29/04:30am 8.9 NNW 2 3 1024.5 - 0.0 - - - - - - -
29/04:00am 10.3 W 4 6 1024.2 - 0.0 - - - - - - -
29/03:30am 9.7 WNW 4 7 1024.3 - 0.0 - - - - - - -
29/03:00am 10.0 W 5 7 1024.5 - 0.0 - - - - - - -
29/02:30am 10.8 W 5 8 1024.6 - 0.0 - - - - - - -
29/02:00am 10.5 SW 4 6 1024.6 - 0.0 - - - - - - -
29/01:30am 11.7 W 7 12 1024.4 - 0.0 - - - - - - -
29/01:00am 11.7 WNW 8 13 1024.2 - 0.0 - - - - - - -
29/12:30am 11.8 WNW 8 15 1024.4 - 0.0 - - - - - - -
29/12:00am 11.8 WNW 7 12 1024.5 - 0.0 - - - - - - -
 
Date/Time
EST
Temp

°C
Wind Pressure Rain
since 9am
mm
Weather Cloud Vis
km
Sea
Height
m
Swell
Dir
 
Speed
knots
Gust
knots
hPa Trend Height
m
Period
s
Dir
28/11:30pm 11.7 NW 8 15 1024.4 - 0.0 - - - - - - -
28/11:00pm 11.3 NW 5 12 1024.6 - 0.0 - - - - - - -
28/10:30pm 11.5 WNW 4 8 1025.1 - 0.0 - - - - - - -
28/10:00pm 11.5 W 4 8 1025.3 - 0.0 - - - - - - -
28/09:30pm 11.9 WNW 6 12 1025.3 - 0.0 - - - - - - -
28/09:00pm 11.9 W 6 12 1025.2 - 0.0 - - - - - - -
28/08:30pm 12.2 WNW 6 11 1025.1 - 0.0 - - - - - - -
28/08:00pm 12.4 WNW 8 13 1024.7 - 0.0 - - - - - - -
28/07:30pm 12.7 WNW 8 15 1024.6 - 0.0 - - - - - - -
28/07:00pm 13.1 WNW 10 20 1024.2 - 0.0 - - - - - - -
28/06:30pm 13.2 WNW 11 18 1024.1 - 0.0 - - - - - - -
28/06:00pm 13.1 NW 9 14 1023.9 - 0.0 - - - - - - -
28/05:30pm 13.0 NW 7 12 1024.0 - 0.0 - - - - - - -
28/05:00pm 13.4 NW 9 14 1023.8 - 0.0 - - - - - - -
28/04:30pm 13.7 WNW 8 15 1023.8 - 0.0 - - - - - - -
28/04:00pm 14.4 WNW 7 14 1023.8 - 0.0 - - - - - - -
28/03:30pm 14.9 WNW 7 13 1023.8 - 0.0 - - - - - - -
28/03:00pm 15.7 WNW 8 15 1023.6 - 0.0 - - - - - - -
28/02:30pm 16.0 WNW 7 14 1023.3 - 0.0 - - - - - - -
28/02:00pm 15.9 WNW 6 11 1023.7 - 0.0 - - - - - - -
28/01:30pm 15.9 WNW 7 13 1023.8 - 0.0 - - - - - - -
28/01:00pm 15.6 WNW 8 17 1023.8 - 0.0 - - - - - - -
28/12:30pm 15.0 WNW 9 18 1024.1 - 0.0 - - - - - - -
28/12:00pm 15.0 WNW 8 16 1024.4 - 0.0 - - - - - - -
28/11:30am 14.6 WNW 5 11 1025.1 - 0.0 - - - - - - -
28/11:00am 14.0 WSW 2 3 1025.6 - 0.0 - - - - - - -
28/10:30am 12.9 NW 1 3 1025.7 - 0.0 - - - - - - -
28/10:00am 11.0 SSE 3 6 1025.7 - 0.0 - - - - - - -
28/09:30am 10.3 CALM 0 0 1025.5 - 0.0 - - - - - - -
28/09:00am 9.3 N 2 3 1024.8 - 0.0 - - - - - - -
28/08:30am 8.2 SE 1 2 1025.0 - 0.0 - - - - - - -
28/08:00am 8.3 CALM 0 1 1024.8 - 0.0 - - - - - - -
28/07:30am 8.2 NNE 1 2 1024.7 - 0.0 - - - - - - -
28/07:00am 8.4 NNW 3 5 1024.5 - 0.0 - - - - - - -
28/06:30am 8.3 NNW 4 5 1024.5 - 0.0 - - - - - - -
28/06:00am 8.3 NNW 3 4 1024.3 - 0.0 - - - - - - -
28/05:30am 7.9 NNW 3 4 1023.8 - 0.0 - - - - - - -
28/05:00am 8.0 WNW 3 4 1023.5 - 0.0 - - - - - - -
28/04:30am 8.4 NW 4 5 1023.4 - 0.0 - - - - - - -
28/04:00am 8.8 NW 3 6 1023.2 - 0.0 - - - - - - -
28/03:30am 8.4 NW 4 5 1023.0 - 0.0 - - - - - - -
28/03:00am 8.0 NW 2 4 1023.4 - 0.0 - - - - - - -
28/02:30am 8.4 NW 3 4 1023.3 - 0.0 - - - - - - -
28/02:00am 8.8 NW 4 6 1022.9 - 0.0 - - - - - - -
28/01:30am 8.8 NW 3 5 1022.8 - 0.0 - - - - - - -
28/01:00am 8.9 NW 4 6 1022.5 - 0.0 - - - - - - -
28/12:30am 8.1 NW 3 5 1022.5 - 0.0 - - - - - - -
28/12:00am 8.9 WNW 2 4 1022.6 - 0.0 - - - - - - -
 
Date/Time
EST
Temp

°C
Wind Pressure Rain
since 9am
mm
Weather Cloud Vis
km
Sea
Height
m
Swell
Dir
 
Speed
knots
Gust
knots
hPa Trend Height
m
Period
s
Dir
27/11:30pm 9.7 WNW 5 7 1022.6 - 0.0 - - - - - - -
27/11:00pm 10.3 WNW 7 13 1022.1 - 0.0 - - - - - - -
27/10:30pm 10.5 NW 8 12 1022.0 - 0.0 - - - - - - -
27/10:00pm 10.4 NW 9 15 1021.7 - 0.0 - - - - - - -
27/09:30pm 10.4 NW 8 13 1021.8 - 0.0 - - - - - - -
27/09:00pm 9.9 WNW 5 9 1021.9 - 0.0 - - - - - - -
27/08:30pm 9.5 WNW 4 6 1022.1 - 0.0 - - - - - - -
27/08:00pm 9.6 WNW 4 5 1022.1 - 0.0 - - - - - - -
27/07:30pm 10.4 W 4 7 1022.0 - 0.0 - - - - - - -
27/07:00pm 11.3 WNW 6 11 1021.5 - 0.0 - - - - - - -
27/06:30pm 11.7 WNW 7 12 1021.2 - 0.0 - - - - - - -
27/06:00pm 12.2 WNW 9 16 1021.1 - 0.0 - - - - - - -
27/05:30pm 12.2 WNW 9 16 1021.0 - 0.0 - - - - - - -
27/05:00pm 12.2 WNW 8 13 1020.6 - 0.0 - - - - - - -
27/04:30pm 12.4 NW 6 11 1020.7 - 0.0 - - - - - - -
27/04:00pm 13.1 NW 6 10 1020.7 - 0.0 - - - - - - -
27/03:30pm 13.8 WNW 7 12 1020.6 - 0.0 - - - - - - -
27/03:00pm 14.9 WNW 7 15 1020.4 - 0.0 - - - - - - -
27/02:30pm 15.2 WNW 6 10 1020.5 - 0.0 - - - - - - -
27/02:00pm 15.1 WNW 9 18 1020.5 - 0.0 - - - - - - -

Other Formats:

Comma delimited format used in spreadsheet applications
http://www.bom.gov.au/fwo/IDT60701/IDT60701.94987.axf

JavaScript Object Notation format (JSON) in row-major order
http://www.bom.gov.au/fwo/IDT60701/IDT60701.94987.json